Time;durP1;ratioP1;P1;durP2;ratioP2;P2;SDS_P1;SDS_P2;PMS_P1;PMS_P2;Temp;Humidity;BMP_temperature;BMP_pressure;BME280_temperature;BME280_humidity;BME280_pressure;Samples;Min_cycle;Max_cycle;Signal;HPM_P1;HPM_P2
2021/09/06 00:01:48;;;;;;;8.43;4.72;;;;;;;14.32;100.00;95247.22;10286038;28;20090;-71
2021/09/06 00:06:49;;;;;;;7.00;4.83;;;;;;;14.26;100.00;95251.06;10286412;28;20054;-72
2021/09/06 00:11:49;;;;;;;11.03;5.30;;;;;;;14.26;100.00;95250.25;10286096;28;20483;-72
2021/09/06 00:16:50;;;;;;;7.60;5.47;;;;;;;14.36;100.00;95250.97;10285712;28;20386;-72
2021/09/06 00:21:51;;;;;;;9.68;4.78;;;;;;;14.37;100.00;95257.19;10285813;28;20035;-72
2021/09/06 00:26:51;;;;;;;9.30;5.93;;;;;;;14.35;100.00;95259.38;10284704;28;20538;-72
2021/09/06 00:31:51;;;;;;;9.80;5.73;;;;;;;14.45;100.00;95259.28;10285573;28;20399;-72
2021/09/06 00:36:52;;;;;;;7.87;5.30;;;;;;;14.42;100.00;95267.16;10285903;28;20058;-72
2021/09/06 00:41:52;;;;;;;9.57;5.30;;;;;;;14.47;100.00;95278.75;10285633;28;20454;-72
2021/09/06 00:46:52;;;;;;;8.93;5.47;;;;;;;14.43;100.00;95274.16;10285722;28;20039;-72
2021/09/06 00:51:54;;;;;;;17.15;5.60;;;;;;;14.40;100.00;95280.97;10285028;28;20277;-72
2021/09/06 00:56:55;;;;;;;9.02;5.47;;;;;;;14.51;100.00;95279.78;10285470;28;20097;-72
2021/09/06 01:01:55;;;;;;;10.97;5.70;;;;;;;14.49;100.00;95283.88;10285146;28;20930;-72
2021/09/06 01:06:56;;;;;;;10.80;6.05;;;;;;;14.41;100.00;95284.47;10292035;28;20309;-71
2021/09/06 01:11:56;;;;;;;8.80;5.73;;;;;;;14.45;100.00;95288.22;10291433;28;20031;-72
2021/09/06 01:16:57;;;;;;;9.67;5.03;;;;;;;14.47;100.00;95292.25;10291436;28;20034;-72
2021/09/06 01:21:58;;;;;;;9.98;6.18;;;;;;;14.47;100.00;95289.56;10291857;28;20030;-72
2021/09/06 01:26:58;;;;;;;9.93;6.32;;;;;;;14.41;100.00;95289.88;10291422;28;20046;-72
2021/09/06 01:31:58;;;;;;;11.50;6.97;;;;;;;14.47;100.00;95288.72;10292091;28;20102;-71
2021/09/06 01:37:00;;;;;;;13.23;6.70;;;;;;;14.45;100.00;95291.72;10291606;28;20030;-72
2021/09/06 01:42:00;;;;;;;11.45;6.63;;;;;;;14.45;100.00;95296.34;10292303;28;20290;-71
2021/09/06 01:47:01;;;;;;;10.35;6.40;;;;;;;14.41;100.00;95289.88;10290231;28;20038;-71
2021/09/06 01:52:01;;;;;;;12.15;6.80;;;;;;;14.35;100.00;95287.22;10290835;28;20038;-71
2021/09/06 01:57:02;;;;;;;16.10;7.07;;;;;;;14.30;100.00;95297.25;10295664;28;20088;-71
2021/09/06 02:02:03;;;;;;;15.02;7.35;;;;;;;14.33;100.00;95285.88;10289071;28;20030;-71
2021/09/06 02:07:03;;;;;;;14.02;8.35;;;;;;;14.39;100.00;95300.19;10289359;28;20047;-71
2021/09/06 02:12:03;;;;;;;13.00;7.27;;;;;;;14.41;100.00;95293.38;10290033;28;20126;-71
2021/09/06 02:17:04;;;;;;;14.38;8.57;;;;;;;14.40;100.00;95299.91;10289357;28;20028;-72
2021/09/06 02:22:04;;;;;;;14.13;9.07;;;;;;;14.43;100.00;95296.63;10290007;28;20026;-72
2021/09/06 02:27:04;;;;;;;15.93;7.77;;;;;;;14.50;100.00;95297.09;10289484;28;20043;-72
2021/09/06 02:32:05;;;;;;;14.40;7.57;;;;;;;14.45;100.00;95297.13;10289588;28;20289;-72
2021/09/06 02:37:06;;;;;;;16.90;7.32;;;;;;;14.46;100.00;95287.94;10289311;28;20530;-72
2021/09/06 02:42:06;;;;;;;16.60;7.03;;;;;;;14.40;100.00;95285.56;10289097;28;20552;-73
2021/09/06 02:47:07;;;;;;;16.48;6.75;;;;;;;14.29;100.00;95296.47;10288949;28;20274;-72
2021/09/06 02:52:07;;;;;;;10.63;6.97;;;;;;;14.23;100.00;95308.41;10288807;28;20105;-72
2021/09/06 02:57:08;;;;;;;12.52;7.07;;;;;;;14.24;100.00;95303.81;10288362;28;20702;-72
2021/09/06 03:02:08;;;;;;;12.63;7.63;;;;;;;14.21;100.00;95299.78;10288433;28;20101;-72
2021/09/06 03:07:08;;;;;;;13.23;7.53;;;;;;;14.22;100.00;95305.97;10288323;28;20050;-72
2021/09/06 03:12:09;;;;;;;11.57;7.73;;;;;;;14.06;100.00;95311.50;10288111;28;20497;-72
2021/09/06 03:17:09;;;;;;;14.75;7.97;;;;;;;13.99;100.00;95313.72;10287990;28;20083;-72
2021/09/06 03:22:10;;;;;;;13.83;8.10;;;;;;;13.95;100.00;95313.47;10286361;28;20034;-72
2021/09/06 03:27:10;;;;;;;14.03;8.20;;;;;;;13.92;100.00;95315.91;10287349;28;20796;-72
2021/09/06 03:32:11;;;;;;;16.85;7.93;;;;;;;13.84;100.00;95318.13;10285835;28;20284;-71
2021/09/06 03:37:12;;;;;;;17.88;8.25;;;;;;;13.79;100.00;95325.47;10287208;28;20039;-71
2021/09/06 03:42:12;;;;;;;16.30;8.40;;;;;;;13.76;100.00;95332.22;10286880;28;20395;-71
2021/09/06 03:47:13;;;;;;;15.70;9.10;;;;;;;13.73;100.00;95335.50;10286621;28;20113;-71
2021/09/06 03:52:13;;;;;;;15.50;9.87;;;;;;;13.70;100.00;95349.53;10286707;28;20069;-71
2021/09/06 03:57:13;;;;;;;12.87;8.47;;;;;;;13.74;100.00;95345.19;10286419;28;20310;-72
2021/09/06 04:02:13;;;;;;;14.47;9.13;;;;;;;13.76;100.00;95342.19;10285810;28;20039;-72
2021/09/06 04:07:14;;;;;;;17.40;10.37;;;;;;;13.73;100.00;95345.47;10286521;28;20108;-71
2021/09/06 04:12:14;;;;;;;18.25;11.77;;;;;;;13.64;100.00;95347.94;10286331;28;20042;-72
2021/09/06 04:17:15;;;;;;;14.40;9.77;;;;;;;13.54;100.00;95348.81;10286002;28;20034;-72
2021/09/06 04:22:15;;;;;;;19.60;10.63;;;;;;;13.55;100.00;95353.13;10285702;28;20046;-71
2021/09/06 04:27:15;;;;;;;19.20;10.97;;;;;;;13.52;100.00;95364.44;10285886;28;20026;-72
2021/09/06 04:32:16;;;;;;;18.57;9.80;;;;;;;13.53;100.00;95374.19;10285786;28;20089;-72
2021/09/06 04:37:16;;;;;;;21.37;10.40;;;;;;;13.57;100.00;95367.16;10285694;28;20033;-72
2021/09/06 04:42:17;;;;;;;22.90;10.93;;;;;;;13.42;100.00;95364.50;10293602;28;20038;-72
2021/09/06 04:47:20;;;;;;;19.65;10.23;;;;;;;13.51;100.00;95381.75;10293697;28;20109;-71
2021/09/06 04:52:20;;;;;;;24.48;11.27;;;;;;;13.59;100.00;95374.97;10293028;28;20031;-72
2021/09/06 04:57:20;;;;;;;17.00;10.80;;;;;;;13.76;100.00;95375.44;10291229;28;20469;-72
2021/09/06 05:02:21;;;;;;;19.17;10.67;;;;;;;13.90;100.00;95383.75;10292248;28;20475;-72
2021/09/06 05:07:21;;;;;;;17.67;10.43;;;;;;;14.25;100.00;95381.13;10291731;28;20301;-71
2021/09/06 05:12:21;;;;;;;17.93;9.57;;;;;;;14.47;100.00;95395.03;10292455;28;20039;-71
2021/09/06 05:17:22;;;;;;;19.07;9.63;;;;;;;14.68;100.00;95392.22;10291996;28;20657;-71
2021/09/06 05:22:22;;;;;;;14.38;9.02;;;;;;;14.98;100.00;95401.16;10290605;28;20430;-71
2021/09/06 05:27:23;;;;;;;16.23;9.23;;;;;;;15.19;100.00;95404.47;10292134;28;20022;-72
2021/09/06 05:32:24;;;;;;;15.77;9.30;;;;;;;15.42;100.00;95408.31;10290407;28;20030;-72
2021/09/06 05:37:24;;;;;;;17.60;9.18;;;;;;;15.59;100.00;95401.66;10290517;28;20037;-72
2021/09/06 05:42:24;;;;;;;16.40;8.90;;;;;;;16.15;100.00;95400.16;10290958;28;20039;-72
2021/09/06 05:47:25;;;;;;;13.80;8.00;;;;;;;16.61;100.00;95401.41;10291082;28;20282;-72
2021/09/06 05:52:25;;;;;;;15.65;8.15;;;;;;;17.22;100.00;95400.41;10289831;28;20141;-71
2021/09/06 05:57:26;;;;;;;15.90;8.17;;;;;;;18.05;100.00;95407.81;10290482;28;20041;-71
2021/09/06 06:02:26;;;;;;;10.10;6.73;;;;;;;17.84;100.00;95396.53;10288946;28;20298;-71
2021/09/06 06:07:26;;;;;;;14.30;8.07;;;;;;;18.17;100.00;95396.44;10289666;28;20306;-72
2021/09/06 06:12:28;;;;;;;15.97;6.47;;;;;;;18.31;100.00;95399.13;10289629;28;20038;-72
2021/09/06 06:17:28;;;;;;;17.02;8.63;;;;;;;19.15;100.00;95402.34;10290117;28;20097;-71
2021/09/06 06:22:29;;;;;;;13.17;6.83;;;;;;;19.41;100.00;95394.31;10290004;28;20114;-72
2021/09/06 06:27:30;;;;;;;13.40;6.47;;;;;;;19.38;100.00;95391.41;10289360;28;20038;-73
2021/09/06 06:32:30;;;;;;;13.05;7.00;;;;;;;19.62;100.00;95400.00;10288026;28;20030;-72
2021/09/06 06:37:30;;;;;;;18.10;8.17;;;;;;;19.41;100.00;95405.22;10289410;28;20113;-72
2021/09/06 06:42:31;;;;;;;15.83;7.00;;;;;;;19.44;100.00;95409.25;10288896;28;20348;-71
2021/09/06 06:47:31;;;;;;;15.73;7.50;;;;;;;19.58;100.00;95412.66;10288854;28;20121;-71
2021/09/06 06:52:32;;;;;;;12.77;7.23;;;;;;;20.95;100.00;95413.63;10288777;28;20046;-71
2021/09/06 06:57:32;;;;;;;10.53;5.87;;;;;;;21.23;100.00;95416.00;10323103;28;20095;-72
2021/09/06 07:02:32;;;;;;;13.27;7.83;;;;;;;21.12;100.00;95420.19;10311096;28;20373;-72
2021/09/06 07:07:33;;;;;;;10.10;6.00;;;;;;;21.00;100.00;95427.13;10329179;28;20073;-72
2021/09/06 07:12:33;;;;;;;15.43;6.90;;;;;;;22.76;88.38;95429.97;10333095;28;20396;-72
2021/09/06 07:17:34;;;;;;;11.18;5.55;;;;;;;24.03;73.46;95429.72;10369037;28;20552;-71
2021/09/06 07:22:35;;;;;;;8.70;5.43;;;;;;;24.47;68.67;95431.88;10369232;28;20060;-72
2021/09/06 07:27:36;;;;;;;10.43;5.78;;;;;;;24.50;66.02;95445.72;10368806;28;20044;-71
2021/09/06 07:32:36;;;;;;;16.70;7.60;;;;;;;23.37;75.21;95443.19;10368772;28;20022;-71
2021/09/06 07:37:38;;;;;;;9.63;5.65;;;;;;;23.63;71.40;95447.56;10369258;28;20026;-72
2021/09/06 07:42:39;;;;;;;13.27;6.03;;;;;;;23.54;75.66;95433.13;10368358;28;20081;-72
2021/09/06 07:47:39;;;;;;;9.95;6.15;;;;;;;23.99;71.28;95443.31;10367979;28;20033;-75
2021/09/06 07:52:40;;;;;;;13.00;4.78;;;;;;;24.72;59.28;95446.38;10334842;28;20031;-73
2021/09/06 07:57:41;;;;;;;13.05;5.10;;;;;;;25.41;56.40;95433.47;10327422;28;20037;-73
2021/09/06 08:02:48;;;;;;;12.10;5.43;;;;;;;26.04;52.58;95429.19;10327073;28;20549;-71
2021/09/06 08:07:49;;;;;;;9.20;5.10;;;;;;;25.82;52.57;95435.31;10315828;28;20054;-72
2021/09/06 08:12:50;;;;;;;8.55;4.97;;;;;;;25.09;54.14;95429.78;10286279;28;20039;-72
2021/09/06 08:17:51;;;;;;;7.47;4.93;;;;;;;23.59;59.63;95441.16;10317070;28;20550;-72
2021/09/06 08:22:52;;;;;;;7.80;4.47;;;;;;;26.27;48.81;95421.06;10308499;28;20035;-72
2021/09/06 08:27:52;;;;;;;8.53;4.27;;;;;;;28.30;43.09;95428.66;10326045;28;20026;-73
2021/09/06 08:32:53;;;;;;;13.45;5.00;;;;;;;28.52;41.29;95423.44;10325301;28;20022;-72
2021/09/06 08:37:53;;;;;;;8.82;4.55;;;;;;;30.50;38.24;95422.88;10325832;28;20492;-73
2021/09/06 08:42:54;;;;;;;12.93;4.97;;;;;;;28.21;39.74;95428.09;10324228;28;20119;-72
2021/09/06 08:47:55;;;;;;;8.25;4.47;;;;;;;30.08;37.07;95432.44;10324176;28;20026;-72
2021/09/06 08:52:56;;;;;;;7.30;4.47;;;;;;;29.73;35.66;95422.59;10361075;28;20573;-72
2021/09/06 08:57:56;;;;;;;5.93;3.95;;;;;;;27.73;36.91;95426.50;10367129;28;20029;-72
2021/09/06 09:02:58;;;;;;;7.93;4.63;;;;;;;25.89;42.02;95427.22;10366091;28;20022;-72
2021/09/06 09:08:00;;;;;;;11.05;4.78;;;;;;;26.60;41.89;95419.06;10366373;28;20046;-72
2021/09/06 09:13:09;;;;;;;9.57;5.05;;;;;;;28.07;38.78;95434.19;10366518;28;20034;-72
2021/09/06 09:18:10;;;;;;;6.93;4.57;;;;;;;26.34;39.66;95433.44;10366208;28;20030;-72
2021/09/06 09:23:11;;;;;;;8.15;4.22;;;;;;;25.41;42.36;95440.91;10365805;28;20482;-71
2021/09/06 09:28:11;;;;;;;10.07;5.13;;;;;;;24.09;48.13;95430.28;10373681;28;20045;-72
2021/09/06 09:33:13;;;;;;;12.63;4.82;;;;;;;23.90;48.59;95434.38;10373282;28;20071;-71
2021/09/06 09:38:13;;;;;;;9.55;4.57;;;;;;;24.70;46.21;95427.50;10385916;28;20038;-72
2021/09/06 09:43:14;;;;;;;10.10;5.13;;;;;;;25.19;44.04;95421.03;10373285;28;20034;-71
2021/09/06 09:48:14;;;;;;;8.37;4.77;;;;;;;25.88;42.09;95420.88;10372393;28;20037;-72
2021/09/06 09:53:14;;;;;;;10.90;4.60;;;;;;;25.55;41.01;95421.22;10333990;28;20026;-72
2021/09/06 09:58:16;;;;;;;7.20;4.23;;;;;;;27.65;37.33;95410.16;10331800;28;20351;-71
2021/09/06 10:03:22;;;;;;;7.38;4.07;;;;;;;27.05;37.77;95414.91;10331305;28;20406;-71
2021/09/06 10:08:22;;;;;;;8.63;4.05;;;;;;;25.98;40.82;95422.31;10330805;28;20194;-72
2021/09/06 10:13:25;;;;;;;6.03;3.95;;;;;;;26.21;42.03;95410.69;10331402;28;20141;-71
2021/09/06 10:18:33;;;;;;;6.10;4.28;;;;;;;25.91;40.57;95414.69;10329785;28;20038;-71
2021/09/06 10:23:41;;;;;;;9.05;5.05;;;;;;;26.69;41.29;95422.44;10330925;28;20038;-71
2021/09/06 10:28:43;;;;;;;6.90;3.65;;;;;;;27.80;36.17;95417.53;10330317;28;20026;-71
2021/09/06 10:33:44;;;;;;;7.93;3.70;;;;;;;28.37;35.03;95411.34;10330682;28;20418;-72
2021/09/06 10:39:00;;;;;;;6.88;4.10;;;;;;;28.40;34.88;95403.13;10329063;28;20033;-72
2021/09/06 10:44:08;;;;;;;8.98;3.95;;;;;;;27.38;36.56;95408.09;10329731;28;20449;-71
2021/09/06 10:49:08;;;;;;;6.25;3.50;;;;;;;27.27;36.72;95412.59;10335018;28;20018;-71
2021/09/06 10:54:09;;;;;;;8.67;4.00;;;;;;;26.39;38.64;95413.88;10369980;28;20026;-71
2021/09/06 10:59:09;;;;;;;8.00;4.05;;;;;;;25.72;40.54;95414.59;10370901;28;20113;-71
2021/09/06 11:04:12;;;;;;;6.50;4.20;;;;;;;25.72;42.35;95418.13;10370176;28;20049;-71
2021/09/06 11:09:15;;;;;;;5.03;3.03;;;;;;;26.65;40.43;95409.72;10369208;28;20050;-71
2021/09/06 11:14:15;;;;;;;9.05;4.03;;;;;;;26.44;40.88;95411.63;10369573;28;20101;-72
2021/09/06 11:19:16;;;;;;;6.90;3.97;;;;;;;26.95;39.76;95410.00;10337080;28;20044;-71
2021/09/06 11:24:21;;;;;;;15.63;4.85;;;;;;;26.44;41.02;95417.16;10328326;28;20049;-71
2021/09/06 11:29:22;;;;;;;9.85;4.60;;;;;;;24.17;46.76;95432.91;10341824;28;20549;-71
2021/09/06 11:34:24;;;;;;;12.63;5.35;;;;;;;22.21;57.81;95423.53;10330583;28;20084;-71
2021/09/06 11:39:29;;;;;;;10.63;5.38;;;;;;;21.84;68.58;95420.50;10326573;28;20030;-71
2021/09/06 11:44:30;;;;;;;11.52;5.53;;;;;;;21.90;67.76;95423.88;10332034;28;20022;-71
2021/09/06 11:49:30;;;;;;;6.75;5.07;;;;;;;21.83;67.85;95424.38;10326061;28;20390;-72
2021/09/06 11:54:40;;;;;;;13.20;5.17;;;;;;;21.68;70.92;95412.84;10327729;28;20030;-71
2021/09/06 11:59:52;;;;;;;9.48;5.32;;;;;;;21.36;73.29;95425.13;10325594;28;20030;-71
2021/09/06 12:05:08;;;;;;;8.63;5.90;;;;;;;21.42;75.18;95431.22;10326881;28;20033;-72
2021/09/06 12:10:09;;;;;;;10.63;5.15;;;;;;;21.30;76.58;95424.50;10327173;28;20070;-72
2021/09/06 12:15:09;;;;;;;11.60;5.78;;;;;;;21.44;72.97;95421.56;10326982;28;20140;-71
2021/09/06 12:20:10;;;;;;;7.65;4.72;;;;;;;21.23;72.57;95418.72;10326747;28;20085;-71
2021/09/06 12:25:11;;;;;;;7.57;4.78;;;;;;;21.26;71.00;95418.06;10327042;28;20022;-71
2021/09/06 12:30:13;;;;;;;7.32;4.70;;;;;;;21.64;71.21;95422.84;10326658;28;20080;-71
2021/09/06 12:35:13;;;;;;;9.27;5.60;;;;;;;21.64;70.80;95417.38;10326620;28;20022;-71
2021/09/06 12:40:14;;;;;;;8.20;5.03;;;;;;;21.19;70.13;95422.44;10326424;28;20108;-71
2021/09/06 12:45:15;;;;;;;8.37;5.40;;;;;;;21.04;73.78;95418.28;10326350;28;20034;-71
2021/09/06 12:50:15;;;;;;;8.43;4.65;;;;;;;20.92;74.63;95413.47;10339797;28;20030;-71
2021/09/06 12:55:16;;;;;;;13.93;5.45;;;;;;;20.81;77.15;95429.38;10366724;28;20444;-71
2021/09/06 13:00:16;;;;;;;10.03;5.67;;;;;;;20.26;76.91;95425.25;10369722;28;20394;-71
2021/09/06 13:05:17;;;;;;;7.30;4.65;;;;;;;20.21;79.35;95426.22;10374366;28;20283;-70
2021/09/06 13:10:18;;;;;;;8.13;4.85;;;;;;;20.39;78.70;95409.88;10374277;28;20050;-70
2021/09/06 13:15:19;;;;;;;7.57;4.85;;;;;;;20.87;75.80;95410.91;10373771;28;20022;-70
2021/09/06 13:20:19;;;;;;;9.98;5.20;;;;;;;20.87;69.32;95411.69;10373466;28;20442;-71
2021/09/06 13:25:19;;;;;;;8.18;5.18;;;;;;;20.43;71.42;95422.56;10373955;28;20026;-70
2021/09/06 13:30:20;;;;;;;8.13;4.53;;;;;;;20.31;71.65;95408.75;10373178;28;20482;-71
2021/09/06 13:35:20;;;;;;;20.70;8.40;;;;;;;20.48;73.86;95416.16;10373067;28;20452;-71
2021/09/06 13:40:21;;;;;;;7.13;4.50;;;;;;;20.53;73.10;95409.75;10373013;28;20029;-71
2021/09/06 13:45:21;;;;;;;9.88;3.90;;;;;;;20.17;74.37;95408.88;10372426;28;20084;-71
2021/09/06 13:50:22;;;;;;;11.00;4.45;;;;;;;19.76;76.66;95420.94;10357668;28;20018;-72
2021/09/06 13:55:22;;;;;;;7.40;4.43;;;;;;;19.66;79.07;95413.00;10332519;28;20084;-72
2021/09/06 14:00:22;;;;;;;12.77;5.13;;;;;;;19.63;79.66;95409.81;10331154;28;20367;-73
2021/09/06 14:05:23;;;;;;;6.80;4.67;;;;;;;19.86;78.56;95404.31;10331414;28;20282;-73
2021/09/06 14:10:24;;;;;;;7.30;3.80;;;;;;;20.18;77.63;95415.94;10330488;28;20301;-73
2021/09/06 14:15:24;;;;;;;6.85;3.53;;;;;;;20.37;66.10;95414.84;10330853;28;20444;-72
2021/09/06 14:20:24;;;;;;;11.30;3.57;;;;;;;20.38;63.70;95419.19;10329052;28;20423;-73
2021/09/06 14:25:25;;;;;;;8.05;3.25;;;;;;;20.39;63.30;95415.34;10329705;28;20265;-72
2021/09/06 14:30:25;;;;;;;10.20;4.27;;;;;;;20.39;61.28;95418.09;10320128;28;20050;-72
2021/09/06 14:35:26;;;;;;;5.95;3.75;;;;;;;20.14;61.12;95423.16;10308204;28;20050;-72
2021/09/06 14:40:26;;;;;;;6.17;3.13;;;;;;;19.98;61.78;95420.06;10285443;28;20145;-72
2021/09/06 14:45:27;;;;;;;7.28;3.75;;;;;;;19.96;60.64;95417.66;10285691;28;20270;-73
2021/09/06 14:50:27;;;;;;;5.63;3.42;;;;;;;20.06;58.58;95419.28;10300369;28;20023;-74
2021/09/06 14:55:28;;;;;;;12.18;3.72;;;;;;;19.98;56.63;95423.59;10325774;28;20137;-73
2021/09/06 15:00:28;;;;;;;9.52;3.35;;;;;;;19.88;56.59;95426.59;10300916;28;20023;-73
2021/09/06 15:05:29;;;;;;;7.87;3.23;;;;;;;19.88;56.30;95426.59;10285070;28;20038;-72
2021/09/06 15:10:29;;;;;;;6.50;3.77;;;;;;;19.89;55.33;95425.50;10302563;28;20043;-72
2021/09/06 15:15:29;;;;;;;6.53;3.33;;;;;;;19.71;54.45;95423.78;10324298;28;20800;-73
2021/09/06 15:20:30;;;;;;;6.93;3.77;;;;;;;19.66;57.21;95419.28;10323813;28;20034;-72
2021/09/06 15:25:30;;;;;;;5.30;3.07;;;;;;;19.70;53.78;95433.09;10323921;28;20278;-72
2021/09/06 15:30:30;;;;;;;7.40;3.93;;;;;;;19.54;53.06;95438.16;10324452;28;20081;-72
2021/09/06 15:35:31;;;;;;;7.25;3.95;;;;;;;19.59;54.54;95436.09;10323470;28;20269;-72
2021/09/06 15:40:31;;;;;;;8.98;3.70;;;;;;;19.60;53.22;95439.63;10323136;28;20026;-72
2021/09/06 15:45:32;;;;;;;7.80;3.55;;;;;;;19.48;52.76;95442.94;10324471;28;20355;-72
2021/09/06 15:50:32;;;;;;;11.80;3.80;;;;;;;19.49;53.75;95436.34;10323217;28;20037;-73
2021/09/06 15:55:33;;;;;;;17.13;4.10;;;;;;;19.46;53.11;95436.97;10323439;28;20084;-72
2021/09/06 16:00:33;;;;;;;10.20;4.40;;;;;;;19.41;54.19;95440.66;10322836;28;20049;-72
2021/09/06 16:05:34;;;;;;;10.07;5.32;;;;;;;19.32;53.58;95439.00;10322868;28;20034;-72
2021/09/06 16:10:34;;;;;;;10.67;5.50;;;;;;;19.09;54.08;95430.84;10323083;28;20057;-72
2021/09/06 16:15:35;;;;;;;11.23;5.45;;;;;;;19.00;54.76;95430.75;10322896;28;20525;-72
2021/09/06 16:20:35;;;;;;;10.17;6.27;;;;;;;18.92;56.52;95428.78;10321662;28;20189;-72
2021/09/06 16:25:35;;;;;;;11.93;6.53;;;;;;;18.87;56.84;95423.44;10321947;28;20281;-72
2021/09/06 16:30:36;;;;;;;14.50;7.07;;;;;;;18.88;57.14;95438.69;10322839;28;20281;-72
2021/09/06 16:35:36;;;;;;;15.57;7.73;;;;;;;18.76;54.31;95433.75;10326234;28;20784;-72
2021/09/06 16:40:36;;;;;;;17.80;7.03;;;;;;;18.58;55.28;95439.06;10311131;28;20033;-72
2021/09/06 16:45:37;;;;;;;18.08;8.27;;;;;;;18.53;57.60;95438.34;10290746;28;20303;-72
2021/09/06 16:50:37;;;;;;;13.63;7.00;;;;;;;18.45;55.45;95442.63;10306699;28;20022;-72
2021/09/06 16:55:38;;;;;;;16.77;7.70;;;;;;;18.28;56.37;95448.72;10330160;28;20022;-72
2021/09/06 17:00:38;;;;;;;14.17;7.80;;;;;;;18.19;55.96;95456.75;10329420;28;20026;-72
2021/09/06 17:05:39;;;;;;;13.73;6.88;;;;;;;18.04;55.77;95454.34;10329867;28;20401;-72
2021/09/06 17:10:39;;;;;;;13.40;7.05;;;;;;;18.00;56.15;95466.94;10328053;28;20050;-72
2021/09/06 17:15:40;;;;;;;18.83;7.97;;;;;;;17.87;56.63;95460.38;10329490;28;20026;-71
2021/09/06 17:20:40;;;;;;;21.08;8.52;;;;;;;17.84;56.99;95460.97;10329570;28;20646;-72
2021/09/06 17:25:41;;;;;;;18.45;8.13;;;;;;;17.81;58.16;95458.88;10329392;28;20066;-71
2021/09/06 17:30:41;;;;;;;22.70;7.37;;;;;;;17.75;59.05;95469.03;10328775;28;20022;-71
2021/09/06 17:35:41;;;;;;;16.37;8.20;;;;;;;17.61;60.56;95466.31;10329032;28;20274;-71
2021/09/06 17:40:42;;;;;;;22.53;8.30;;;;;;;17.53;60.23;95478.66;10328901;28;20033;-71
2021/09/06 17:45:42;;;;;;;12.98;7.75;;;;;;;17.43;61.39;95484.28;10328177;28;20029;-71
2021/09/06 17:50:43;;;;;;;12.57;7.77;;;;;;;17.36;65.75;95490.09;10343702;28;20076;-71
2021/09/06 17:55:43;;;;;;;17.38;7.82;;;;;;;17.33;65.31;95493.41;10331222;28;20340;-71
2021/09/06 18:00:44;;;;;;;17.00;8.17;;;;;;;17.20;64.42;95492.25;10344760;28;20032;-71
2021/09/06 18:05:44;;;;;;;13.35;7.10;;;;;;;17.17;70.90;95494.78;10343761;28;20280;-72
2021/09/06 18:10:45;;;;;;;9.77;5.95;;;;;;;17.13;64.24;95491.03;10343518;28;20053;-70
2021/09/06 18:15:45;;;;;;;16.02;6.45;;;;;;;16.99;65.17;95505.34;10345713;28;20049;-71
2021/09/06 18:20:45;;;;;;;20.93;6.33;;;;;;;16.96;66.62;95505.16;10341976;28;20030;-72
2021/09/06 18:25:46;;;;;;;10.53;6.33;;;;;;;16.94;71.90;95521.75;10340554;28;20026;-71
2021/09/06 18:30:47;;;;;;;16.60;7.33;;;;;;;16.83;68.96;95529.19;10345373;28;21013;-71
2021/09/06 18:35:47;;;;;;;11.35;6.10;;;;;;;16.79;69.03;95530.06;10345770;28;20316;-71
2021/09/06 18:40:48;;;;;;;10.67;6.20;;;;;;;16.69;76.30;95536.44;10322808;28;20033;-71
2021/09/06 18:45:49;;;;;;;12.93;5.95;;;;;;;16.64;72.73;95534.59;10345185;28;20378;-71
2021/09/06 18:50:52;;;;;;;12.93;5.65;;;;;;;16.61;76.08;95535.19;10345324;28;20405;-72
2021/09/06 18:55:53;;;;;;;13.20;4.93;;;;;;;16.51;74.09;95538.84;10344636;28;20105;-71
2021/09/06 19:00:53;;;;;;;12.20;5.63;;;;;;;16.42;74.16;95537.84;10313006;28;20034;-71
2021/09/06 19:05:54;;;;;;;8.57;5.32;;;;;;;16.36;76.68;95542.53;10345323;28;20045;-72
2021/09/06 19:10:55;;;;;;;12.02;5.10;;;;;;;16.34;79.36;95541.22;10342303;28;20038;-72
2021/09/06 19:15:55;;;;;;;7.30;4.80;;;;;;;16.24;76.51;95539.44;10322926;28;20541;-72
2021/09/06 19:20:55;;;;;;;9.80;4.78;;;;;;;16.13;77.30;95546.91;10339582;28;20029;-71
2021/09/06 19:25:56;;;;;;;7.67;4.70;;;;;;;16.09;77.65;95542.31;10334040;28;20410;-71
2021/09/06 19:30:56;;;;;;;9.73;4.85;;;;;;;16.00;78.98;95544.84;10332286;28;20435;-72
2021/09/06 19:35:57;;;;;;;12.53;5.67;;;;;;;15.94;79.69;95551.44;10320429;28;20026;-72
2021/09/06 19:40:58;;;;;;;7.15;4.47;;;;;;;15.95;79.84;95547.59;10320202;28;20034;-72
2021/09/06 19:45:58;;;;;;;12.23;5.25;;;;;;;15.93;80.16;95557.94;10321042;28;20050;-72
2021/09/06 19:50:59;;;;;;;49.58;20.13;;;;;;;15.77;81.54;95560.78;10321602;28;20027;-72
2021/09/06 19:55:59;;;;;;;10.27;4.30;;;;;;;15.78;81.21;95550.75;10326317;28;20022;-72
2021/09/06 20:00:59;;;;;;;11.20;5.03;;;;;;;15.71;82.84;95559.19;10342138;28;20285;-72
2021/09/06 20:06:00;;;;;;;9.27;4.83;;;;;;;15.57;85.01;95556.34;10337861;28;20113;-72
2021/09/06 20:11:00;;;;;;;8.10;4.40;;;;;;;15.40;87.14;95559.47;10334420;28;20046;-72
2021/09/06 20:16:00;;;;;;;12.07;4.50;;;;;;;15.35;87.54;95560.31;10339070;28;20477;-72
2021/09/06 20:21:01;;;;;;;12.40;5.00;;;;;;;15.30;90.61;95567.69;10338250;28;20017;-72
2021/09/06 20:26:02;;;;;;;8.13;5.00;;;;;;;15.32;92.40;95566.31;10338895;28;20018;-72
2021/09/06 20:31:02;;;;;;;14.52;5.10;;;;;;;15.28;94.61;95567.97;10318344;28;20270;-72
2021/09/06 20:36:03;;;;;;;8.65;5.53;;;;;;;14.95;94.95;95586.59;10302094;28;20430;-72
2021/09/06 20:41:05;;;;;;;16.52;4.32;;;;;;;14.79;97.32;95582.34;10279570;28;20082;-72
2021/09/06 20:46:06;;;;;;;8.10;4.20;;;;;;;14.59;99.73;95573.22;10276833;28;20034;-71
2021/09/06 20:51:09;;;;;;;6.80;4.20;;;;;;;14.46;100.00;95571.91;10277094;28;20034;-71
2021/09/06 20:56:09;;;;;;;10.60;4.30;;;;;;;14.43;100.00;95580.59;10277914;28;20054;-72
2021/09/06 21:01:09;;;;;;;8.70;4.80;;;;;;;14.38;100.00;95583.31;10276835;28;20566;-72
2021/09/06 21:06:14;;;;;;;6.33;3.77;;;;;;;14.39;100.00;95586.84;10277021;28;20466;-72
2021/09/06 21:11:14;;;;;;;9.13;4.57;;;;;;;14.31;100.00;95585.50;10277614;28;20357;-72
2021/09/06 21:16:15;;;;;;;9.03;4.50;;;;;;;14.23;100.00;95588.78;10277946;28;20027;-72
2021/09/06 21:21:15;;;;;;;12.43;4.77;;;;;;;14.06;100.00;95594.50;10279761;28;20293;-71
2021/09/06 21:26:15;;;;;;;8.98;4.85;;;;;;;14.05;100.00;95592.88;10285106;28;20145;-71
2021/09/06 21:31:16;;;;;;;10.70;4.43;;;;;;;13.94;100.00;95592.06;10283833;28;20073;-72
2021/09/06 21:36:21;;;;;;;7.83;4.50;;;;;;;13.94;100.00;95602.88;10284231;28;20887;-72
2021/09/06 21:41:21;;;;;;;6.47;4.13;;;;;;;13.65;100.00;95606.97;10284563;28;20023;-72
2021/09/06 21:46:21;;;;;;;7.47;4.50;;;;;;;13.44;100.00;95606.16;10284978;28;20023;-71
2021/09/06 21:51:23;;;;;;;10.33;4.13;;;;;;;13.37;100.00;95611.03;10282740;28;20678;-71
2021/09/06 21:56:23;;;;;;;8.50;4.50;;;;;;;13.12;100.00;95612.59;10282686;28;20274;-71
2021/09/06 22:01:23;;;;;;;6.50;3.80;;;;;;;13.07;100.00;95615.25;10281767;28;20646;-71
2021/09/06 22:06:24;;;;;;;8.63;4.30;;;;;;;13.11;100.00;95610.16;10283003;28;20372;-71
2021/09/06 22:11:24;;;;;;;6.38;3.72;;;;;;;13.14;100.00;95612.31;10281752;28;20033;-71
2021/09/06 22:16:25;;;;;;;8.27;4.63;;;;;;;13.10;100.00;95617.44;10282289;28;20478;-71
2021/09/06 22:21:25;;;;;;;8.07;4.10;;;;;;;12.96;100.00;95619.00;10282867;28;20820;-71
2021/09/06 22:26:26;;;;;;;8.57;4.95;;;;;;;12.94;100.00;95618.50;10281911;28;20276;-71
2021/09/06 22:31:27;;;;;;;6.13;4.00;;;;;;;12.95;100.00;95615.53;10281783;28;20030;-71
2021/09/06 22:36:27;;;;;;;8.43;4.80;;;;;;;12.94;100.00;95613.09;10281424;28;20026;-71
2021/09/06 22:41:27;;;;;;;13.77;4.63;;;;;;;12.87;100.00;95617.94;10282163;28;20027;-71
2021/09/06 22:46:28;;;;;;;9.87;4.57;;;;;;;12.95;100.00;95626.31;10280955;28;20035;-72
2021/09/06 22:51:28;;;;;;;9.48;4.03;;;;;;;13.07;100.00;95620.66;10280875;28;20698;-71
2021/09/06 22:56:29;;;;;;;8.27;4.77;;;;;;;13.27;100.00;95616.38;10280111;28;20197;-71
2021/09/06 23:01:29;;;;;;;7.33;4.20;;;;;;;13.41;100.00;95617.50;10279636;28;20034;-71